sensor_id;sensor_type;location;lat;lon;timestamp;P1;durP1;ratioP1;P2;durP2;ratioP2
63282;SDS011;49407;51.388;0.048;2022-09-09T00:00:37;22.92;;;11.27;;
63282;SDS011;49407;51.388;0.048;2022-09-09T00:05:58;17.65;;;10.63;;
63282;SDS011;49407;51.388;0.048;2022-09-09T00:08:40;12.95;;;10.48;;
63282;SDS011;49407;51.388;0.048;2022-09-09T00:11:08;14.68;;;11.32;;
63282;SDS011;49407;51.388;0.048;2022-09-09T00:13:45;15.88;;;10.40;;
63282;SDS011;49407;51.388;0.048;2022-09-09T00:16:17;15.57;;;11.27;;
63282;SDS011;49407;51.388;0.048;2022-09-09T00:19:00;17.92;;;11.52;;
63282;SDS011;49407;51.388;0.048;2022-09-09T00:21:34;13.47;;;10.20;;
63282;SDS011;49407;51.388;0.048;2022-09-09T00:24:32;16.50;;;10.57;;
63282;SDS011;49407;51.388;0.048;2022-09-09T00:27:04;16.20;;;11.05;;
63282;SDS011;49407;51.388;0.048;2022-09-09T00:32:14;16.10;;;9.65;;
63282;SDS011;49407;51.388;0.048;2022-09-09T00:37:20;15.23;;;9.50;;
63282;SDS011;49407;51.388;0.048;2022-09-09T00:39:53;13.70;;;9.10;;
63282;SDS011;49407;51.388;0.048;2022-09-09T00:42:30;11.98;;;10.63;;
63282;SDS011;49407;51.388;0.048;2022-09-09T00:47:44;17.30;;;10.67;;
63282;SDS011;49407;51.388;0.048;2022-09-09T00:53:26;11.88;;;10.65;;
63282;SDS011;49407;51.388;0.048;2022-09-09T00:56:16;14.40;;;10.27;;
63282;SDS011;49407;51.388;0.048;2022-09-09T00:58:53;12.48;;;9.98;;
63282;SDS011;49407;51.388;0.048;2022-09-09T01:01:36;12.15;;;10.07;;
63282;SDS011;49407;51.388;0.048;2022-09-09T01:04:08;14.70;;;9.73;;
63282;SDS011;49407;51.388;0.048;2022-09-09T01:06:42;17.08;;;9.95;;
63282;SDS011;49407;51.388;0.048;2022-09-09T01:31:42;15.15;;;10.60;;
63282;SDS011;49407;51.388;0.048;2022-09-09T01:34:20;15.13;;;10.65;;
63282;SDS011;49407;51.388;0.048;2022-09-09T01:39:21;17.45;;;11.50;;
63282;SDS011;49407;51.388;0.048;2022-09-09T01:41:57;14.43;;;10.68;;
63282;SDS011;49407;51.388;0.048;2022-09-09T01:44:24;15.43;;;10.70;;
63282;SDS011;49407;51.388;0.048;2022-09-09T01:46:53;25.25;;;11.23;;
63282;SDS011;49407;51.388;0.048;2022-09-09T01:49:22;14.27;;;10.25;;
63282;SDS011;49407;51.388;0.048;2022-09-09T01:51:50;19.05;;;12.10;;
63282;SDS011;49407;51.388;0.048;2022-09-09T01:54:27;11.80;;;10.45;;
63282;SDS011;49407;51.388;0.048;2022-09-09T02:11:22;15.05;;;9.90;;
63282;SDS011;49407;51.388;0.048;2022-09-09T02:14:16;16.02;;;10.27;;
63282;SDS011;49407;51.388;0.048;2022-09-09T02:16:53;19.10;;;10.43;;
63282;SDS011;49407;51.388;0.048;2022-09-09T02:19:32;14.93;;;9.90;;
63282;SDS011;49407;51.388;0.048;2022-09-09T02:22:21;16.75;;;9.68;;
63282;SDS011;49407;51.388;0.048;2022-09-09T02:24:51;14.85;;;9.25;;
63282;SDS011;49407;51.388;0.048;2022-09-09T02:27:25;14.93;;;10.07;;
63282;SDS011;49407;51.388;0.048;2022-09-09T02:29:52;13.90;;;9.80;;
63282;SDS011;49407;51.388;0.048;2022-09-09T02:32:45;11.90;;;9.10;;
63282;SDS011;49407;51.388;0.048;2022-09-09T02:35:17;12.35;;;8.90;;
63282;SDS011;49407;51.388;0.048;2022-09-09T02:37:47;11.20;;;9.05;;
63282;SDS011;49407;51.388;0.048;2022-09-09T02:40:18;13.07;;;8.85;;
63282;SDS011;49407;51.388;0.048;2022-09-09T02:42:49;12.25;;;8.65;;
63282;SDS011;49407;51.388;0.048;2022-09-09T02:45:19;13.52;;;8.48;;
63282;SDS011;49407;51.388;0.048;2022-09-09T02:47:55;8.25;;;7.63;;
63282;SDS011;49407;51.388;0.048;2022-09-09T02:50:31;10.60;;;9.50;;
63282;SDS011;49407;51.388;0.048;2022-09-09T02:53:17;11.13;;;8.73;;
63282;SDS011;49407;51.388;0.048;2022-09-09T02:56:18;12.93;;;10.02;;
63282;SDS011;49407;51.388;0.048;2022-09-09T03:02:11;14.73;;;9.82;;
63282;SDS011;49407;51.388;0.048;2022-09-09T03:04:41;19.08;;;10.05;;
63282;SDS011;49407;51.388;0.048;2022-09-09T03:07:17;15.68;;;10.52;;
63282;SDS011;49407;51.388;0.048;2022-09-09T03:09:50;13.63;;;9.73;;
63282;SDS011;49407;51.388;0.048;2022-09-09T03:12:17;15.93;;;10.45;;
63282;SDS011;49407;51.388;0.048;2022-09-09T03:14:44;15.55;;;10.52;;
63282;SDS011;49407;51.388;0.048;2022-09-09T03:17:12;17.23;;;11.35;;
63282;SDS011;49407;51.388;0.048;2022-09-09T03:19:48;16.67;;;10.68;;
63282;SDS011;49407;51.388;0.048;2022-09-09T03:22:16;22.73;;;11.88;;
63282;SDS011;49407;51.388;0.048;2022-09-09T03:24:44;24.90;;;13.05;;
63282;SDS011;49407;51.388;0.048;2022-09-09T03:27:13;17.25;;;10.75;;
63282;SDS011;49407;51.388;0.048;2022-09-09T03:29:45;20.70;;;11.27;;
63282;SDS011;49407;51.388;0.048;2022-09-09T03:32:18;21.95;;;12.75;;
63282;SDS011;49407;51.388;0.048;2022-09-09T03:34:48;21.40;;;11.98;;
63282;SDS011;49407;51.388;0.048;2022-09-09T03:37:16;24.85;;;11.65;;
63282;SDS011;49407;51.388;0.048;2022-09-09T03:39:44;14.63;;;11.10;;
63282;SDS011;49407;51.388;0.048;2022-09-09T03:42:14;15.60;;;11.90;;
63282;SDS011;49407;51.388;0.048;2022-09-09T03:44:47;25.48;;;11.82;;
63282;SDS011;49407;51.388;0.048;2022-09-09T03:49:51;21.85;;;13.02;;
63282;SDS011;49407;51.388;0.048;2022-09-09T03:52:17;22.20;;;12.23;;
63282;SDS011;49407;51.388;0.048;2022-09-09T03:54:50;14.25;;;10.75;;
63282;SDS011;49407;51.388;0.048;2022-09-09T03:57:17;19.00;;;12.23;;
63282;SDS011;49407;51.388;0.048;2022-09-09T04:02:53;25.50;;;12.80;;
63282;SDS011;49407;51.388;0.048;2022-09-09T04:05:23;19.70;;;12.88;;
63282;SDS011;49407;51.388;0.048;2022-09-09T04:07:50;16.73;;;11.82;;
63282;SDS011;49407;51.388;0.048;2022-09-09T04:13:25;21.10;;;11.98;;
63282;SDS011;49407;51.388;0.048;2022-09-09T04:15:55;29.67;;;13.98;;
63282;SDS011;49407;51.388;0.048;2022-09-09T04:18:24;17.05;;;12.52;;
63282;SDS011;49407;51.388;0.048;2022-09-09T04:20:52;18.48;;;12.93;;
63282;SDS011;49407;51.388;0.048;2022-09-09T04:23:24;24.60;;;13.60;;
63282;SDS011;49407;51.388;0.048;2022-09-09T04:25:57;21.92;;;13.40;;
63282;SDS011;49407;51.388;0.048;2022-09-09T04:28:28;21.40;;;13.65;;
63282;SDS011;49407;51.388;0.048;2022-09-09T04:31:03;19.80;;;13.65;;
63282;SDS011;49407;51.388;0.048;2022-09-09T04:33:37;22.38;;;13.93;;
63282;SDS011;49407;51.388;0.048;2022-09-09T04:36:07;22.73;;;13.40;;
63282;SDS011;49407;51.388;0.048;2022-09-09T04:38:36;24.92;;;14.80;;
63282;SDS011;49407;51.388;0.048;2022-09-09T04:41:03;21.70;;;13.32;;
63282;SDS011;49407;51.388;0.048;2022-09-09T04:43:33;15.57;;;11.52;;
63282;SDS011;49407;51.388;0.048;2022-09-09T04:46:02;16.65;;;11.75;;
63282;SDS011;49407;51.388;0.048;2022-09-09T04:48:31;18.45;;;12.50;;
63282;SDS011;49407;51.388;0.048;2022-09-09T04:51:00;12.65;;;11.38;;
63282;SDS011;49407;51.388;0.048;2022-09-09T04:53:32;16.52;;;13.18;;
63282;SDS011;49407;51.388;0.048;2022-09-09T04:56:12;17.15;;;13.43;;
63282;SDS011;49407;51.388;0.048;2022-09-09T05:01:59;18.30;;;12.32;;
63282;SDS011;49407;51.388;0.048;2022-09-09T05:04:27;19.85;;;12.65;;
63282;SDS011;49407;51.388;0.048;2022-09-09T05:06:55;18.25;;;11.90;;
63282;SDS011;49407;51.388;0.048;2022-09-09T05:11:54;12.75;;;11.45;;
63282;SDS011;49407;51.388;0.048;2022-09-09T05:14:27;17.58;;;12.10;;
63282;SDS011;49407;51.388;0.048;2022-09-09T05:16:54;19.45;;;12.05;;
63282;SDS011;49407;51.388;0.048;2022-09-09T05:19:24;19.52;;;12.20;;
63282;SDS011;49407;51.388;0.048;2022-09-09T05:21:52;20.15;;;12.77;;
63282;SDS011;49407;51.388;0.048;2022-09-09T05:24:25;20.13;;;13.40;;
63282;SDS011;49407;51.388;0.048;2022-09-09T05:26:54;19.70;;;14.43;;
63282;SDS011;49407;51.388;0.048;2022-09-09T05:29:26;15.50;;;12.55;;
63282;SDS011;49407;51.388;0.048;2022-09-09T05:31:55;21.95;;;15.98;;
63282;SDS011;49407;51.388;0.048;2022-09-09T05:34:23;26.30;;;15.80;;
63282;SDS011;49407;51.388;0.048;2022-09-09T05:36:50;26.48;;;16.55;;
63282;SDS011;49407;51.388;0.048;2022-09-09T05:39:21;24.08;;;15.90;;
63282;SDS011;49407;51.388;0.048;2022-09-09T05:41:50;23.77;;;16.33;;
63282;SDS011;49407;51.388;0.048;2022-09-09T05:44:17;23.08;;;16.08;;
63282;SDS011;49407;51.388;0.048;2022-09-09T05:46:45;24.17;;;17.08;;
63282;SDS011;49407;51.388;0.048;2022-09-09T05:49:16;28.27;;;16.67;;
63282;SDS011;49407;51.388;0.048;2022-09-09T05:51:43;29.35;;;17.50;;
63282;SDS011;49407;51.388;0.048;2022-09-09T05:54:12;28.38;;;17.23;;
63282;SDS011;49407;51.388;0.048;2022-09-09T05:56:45;20.60;;;16.80;;
63282;SDS011;49407;51.388;0.048;2022-09-09T05:59:17;27.33;;;16.95;;
63282;SDS011;49407;51.388;0.048;2022-09-09T06:01:44;30.73;;;17.27;;
63282;SDS011;49407;51.388;0.048;2022-09-09T06:04:25;28.13;;;16.85;;
63282;SDS011;49407;51.388;0.048;2022-09-09T06:06:52;22.63;;;15.50;;
63282;SDS011;49407;51.388;0.048;2022-09-09T06:09:21;24.05;;;16.17;;
63282;SDS011;49407;51.388;0.048;2022-09-09T06:11:49;24.95;;;17.80;;
63282;SDS011;49407;51.388;0.048;2022-09-09T06:14:16;22.20;;;15.60;;
63282;SDS011;49407;51.388;0.048;2022-09-09T06:16:46;30.75;;;17.92;;
63282;SDS011;49407;51.388;0.048;2022-09-09T06:19:22;30.00;;;18.38;;
63282;SDS011;49407;51.388;0.048;2022-09-09T06:21:54;22.98;;;17.70;;
63282;SDS011;49407;51.388;0.048;2022-09-09T06:24:21;22.13;;;15.30;;
63282;SDS011;49407;51.388;0.048;2022-09-09T06:26:49;23.25;;;17.25;;
63282;SDS011;49407;51.388;0.048;2022-09-09T06:29:24;21.80;;;17.20;;
63282;SDS011;49407;51.388;0.048;2022-09-09T06:31:52;26.50;;;17.48;;
63282;SDS011;49407;51.388;0.048;2022-09-09T06:34:21;24.92;;;18.63;;
63282;SDS011;49407;51.388;0.048;2022-09-09T06:36:56;26.83;;;16.90;;
63282;SDS011;49407;51.388;0.048;2022-09-09T06:42:35;25.48;;;16.90;;
63282;SDS011;49407;51.388;0.048;2022-09-09T06:45:22;23.88;;;16.30;;
63282;SDS011;49407;51.388;0.048;2022-09-09T06:47:55;31.58;;;17.83;;
63282;SDS011;49407;51.388;0.048;2022-09-09T06:53:09;19.15;;;15.40;;
63282;SDS011;49407;51.388;0.048;2022-09-09T06:55:36;21.10;;;16.75;;
63282;SDS011;49407;51.388;0.048;2022-09-09T06:58:08;23.98;;;16.63;;
63282;SDS011;49407;51.388;0.048;2022-09-09T07:00:35;20.95;;;15.88;;
63282;SDS011;49407;51.388;0.048;2022-09-09T07:03:05;26.65;;;16.30;;
63282;SDS011;49407;51.388;0.048;2022-09-09T07:05:32;22.55;;;15.15;;
63282;SDS011;49407;51.388;0.048;2022-09-09T07:07:59;26.00;;;16.73;;
63282;SDS011;49407;51.388;0.048;2022-09-09T07:13:13;19.52;;;14.55;;
63282;SDS011;49407;51.388;0.048;2022-09-09T07:15:41;18.85;;;14.50;;
63282;SDS011;49407;51.388;0.048;2022-09-09T07:18:09;24.77;;;14.63;;
63282;SDS011;49407;51.388;0.048;2022-09-09T07:20:37;22.88;;;15.38;;
63282;SDS011;49407;51.388;0.048;2022-09-09T07:23:04;22.27;;;14.82;;
63282;SDS011;49407;51.388;0.048;2022-09-09T07:25:31;22.42;;;14.50;;
63282;SDS011;49407;51.388;0.048;2022-09-09T07:27:58;19.20;;;15.82;;
63282;SDS011;49407;51.388;0.048;2022-09-09T07:30:28;18.25;;;13.82;;
63282;SDS011;49407;51.388;0.048;2022-09-09T07:32:56;17.73;;;15.07;;
63282;SDS011;49407;51.388;0.048;2022-09-09T07:35:24;24.80;;;17.65;;
63282;SDS011;49407;51.388;0.048;2022-09-09T07:37:51;19.45;;;16.63;;
63282;SDS011;49407;51.388;0.048;2022-09-09T07:40:19;19.23;;;16.00;;
63282;SDS011;49407;51.388;0.048;2022-09-09T07:42:48;15.95;;;14.32;;
63282;SDS011;49407;51.388;0.048;2022-09-09T07:45:16;21.80;;;14.60;;
63282;SDS011;49407;51.388;0.048;2022-09-09T07:47:43;20.88;;;15.50;;
63282;SDS011;49407;51.388;0.048;2022-09-09T07:52:58;17.90;;;15.35;;
63282;SDS011;49407;51.388;0.048;2022-09-09T07:55:25;18.27;;;16.35;;
63282;SDS011;49407;51.388;0.048;2022-09-09T07:57:53;21.58;;;16.38;;
63282;SDS011;49407;51.388;0.048;2022-09-09T08:00:24;25.00;;;18.92;;
63282;SDS011;49407;51.388;0.048;2022-09-09T08:02:55;24.80;;;18.90;;
63282;SDS011;49407;51.388;0.048;2022-09-09T08:05:24;31.13;;;24.30;;
63282;SDS011;49407;51.388;0.048;2022-09-09T08:07:52;27.50;;;21.52;;
63282;SDS011;49407;51.388;0.048;2022-09-09T08:13:08;22.55;;;17.70;;
63282;SDS011;49407;51.388;0.048;2022-09-09T08:15:45;23.77;;;16.65;;
63282;SDS011;49407;51.388;0.048;2022-09-09T08:18:15;23.58;;;15.90;;
63282;SDS011;49407;51.388;0.048;2022-09-09T08:20:43;20.67;;;15.27;;
63282;SDS011;49407;51.388;0.048;2022-09-09T08:23:10;25.73;;;22.02;;
63282;SDS011;49407;51.388;0.048;2022-09-09T08:25:37;17.73;;;13.77;;
63282;SDS011;49407;51.388;0.048;2022-09-09T08:28:04;15.70;;;13.55;;
63282;SDS011;49407;51.388;0.048;2022-09-09T08:30:33;13.73;;;12.35;;
63282;SDS011;49407;51.388;0.048;2022-09-09T08:33:00;13.18;;;11.75;;
63282;SDS011;49407;51.388;0.048;2022-09-09T08:35:27;12.73;;;11.57;;
63282;SDS011;49407;51.388;0.048;2022-09-09T08:37:59;11.73;;;10.75;;
63282;SDS011;49407;51.388;0.048;2022-09-09T08:43:32;22.95;;;15.30;;
63282;SDS011;49407;51.388;0.048;2022-09-09T08:51:28;14.35;;;12.85;;
63282;SDS011;49407;51.388;0.048;2022-09-09T08:53:58;13.77;;;12.38;;
63282;SDS011;49407;51.388;0.048;2022-09-09T08:56:28;16.08;;;14.35;;
63282;SDS011;49407;51.388;0.048;2022-09-09T08:59:00;16.45;;;14.93;;
63282;SDS011;49407;51.388;0.048;2022-09-09T09:07:32;16.23;;;14.63;;
63282;SDS011;49407;51.388;0.048;2022-09-09T09:13:24;14.70;;;13.35;;
63282;SDS011;49407;51.388;0.048;2022-09-09T09:19:01;17.95;;;14.65;;
63282;SDS011;49407;51.388;0.048;2022-09-09T09:21:39;16.98;;;15.27;;
63282;SDS011;49407;51.388;0.048;2022-09-09T09:27:07;16.50;;;14.93;;
63282;SDS011;49407;51.388;0.048;2022-09-09T09:29:44;15.45;;;14.27;;
63282;SDS011;49407;51.388;0.048;2022-09-09T09:32:33;15.45;;;13.95;;
63282;SDS011;49407;51.388;0.048;2022-09-09T09:35:06;17.75;;;15.80;;
63282;SDS011;49407;51.388;0.048;2022-09-09T09:37:40;17.77;;;16.25;;
63282;SDS011;49407;51.388;0.048;2022-09-09T09:40:30;18.42;;;16.63;;
63282;SDS011;49407;51.388;0.048;2022-09-09T09:42:58;19.95;;;17.95;;
63282;SDS011;49407;51.388;0.048;2022-09-09T09:45:50;20.02;;;18.05;;
63282;SDS011;49407;51.388;0.048;2022-09-09T09:48:36;18.08;;;16.23;;
63282;SDS011;49407;51.388;0.048;2022-09-09T09:51:10;22.00;;;19.80;;
63282;SDS011;49407;51.388;0.048;2022-09-09T09:53:42;19.73;;;17.70;;
63282;SDS011;49407;51.388;0.048;2022-09-09T09:56:12;20.10;;;17.98;;
63282;SDS011;49407;51.388;0.048;2022-09-09T10:02:23;20.67;;;18.58;;
63282;SDS011;49407;51.388;0.048;2022-09-09T10:05:05;18.27;;;16.33;;
63282;SDS011;49407;51.388;0.048;2022-09-09T10:07:40;17.60;;;15.80;;
63282;SDS011;49407;51.388;0.048;2022-09-09T10:10:34;18.58;;;15.90;;
63282;SDS011;49407;51.388;0.048;2022-09-09T10:13:20;17.95;;;16.00;;
63282;SDS011;49407;51.388;0.048;2022-09-09T10:16:18;19.00;;;16.63;;
63282;SDS011;49407;51.388;0.048;2022-09-09T10:22:27;17.50;;;15.63;;
63282;SDS011;49407;51.388;0.048;2022-09-09T10:36:15;18.48;;;15.63;;
63282;SDS011;49407;51.388;0.048;2022-09-09T10:39:04;18.73;;;15.73;;
63282;SDS011;49407;51.388;0.048;2022-09-09T10:41:50;18.33;;;15.30;;
63282;SDS011;49407;51.388;0.048;2022-09-09T10:50:08;17.25;;;15.40;;
63282;SDS011;49407;51.388;0.048;2022-09-09T10:56:08;19.65;;;15.45;;
63282;SDS011;49407;51.388;0.048;2022-09-09T10:58:47;24.70;;;15.45;;
63282;SDS011;49407;51.388;0.048;2022-09-09T11:01:18;16.33;;;13.88;;
63282;SDS011;49407;51.388;0.048;2022-09-09T11:03:57;16.60;;;12.88;;
63282;SDS011;49407;51.388;0.048;2022-09-09T11:06:39;15.40;;;12.45;;
63282;SDS011;49407;51.388;0.048;2022-09-09T11:09:15;18.48;;;14.05;;
63282;SDS011;49407;51.388;0.048;2022-09-09T11:16:57;18.77;;;14.68;;
63282;SDS011;49407;51.388;0.048;2022-09-09T11:22:23;17.80;;;16.13;;
63282;SDS011;49407;51.388;0.048;2022-09-09T11:30:43;15.25;;;13.85;;
63282;SDS011;49407;51.388;0.048;2022-09-09T11:41:51;9.40;;;8.73;;
63282;SDS011;49407;51.388;0.048;2022-09-09T11:44:19;9.80;;;9.00;;
63282;SDS011;49407;51.388;0.048;2022-09-09T11:46:56;8.75;;;7.95;;
63282;SDS011;49407;51.388;0.048;2022-09-09T11:49:26;9.52;;;8.80;;
63282;SDS011;49407;51.388;0.048;2022-09-09T11:52:18;9.88;;;8.98;;
63282;SDS011;49407;51.388;0.048;2022-09-09T11:54:49;10.10;;;9.20;;
63282;SDS011;49407;51.388;0.048;2022-09-09T11:57:22;10.35;;;9.32;;
63282;SDS011;49407;51.388;0.048;2022-09-09T12:00:01;9.40;;;8.65;;
63282;SDS011;49407;51.388;0.048;2022-09-09T12:02:37;8.95;;;8.05;;
63282;SDS011;49407;51.388;0.048;2022-09-09T12:05:16;9.27;;;8.48;;
63282;SDS011;49407;51.388;0.048;2022-09-09T12:10:22;8.75;;;8.15;;
63282;SDS011;49407;51.388;0.048;2022-09-09T12:13:07;7.63;;;6.95;;
63282;SDS011;49407;51.388;0.048;2022-09-09T12:15:47;7.80;;;7.05;;
63282;SDS011;49407;51.388;0.048;2022-09-09T12:18:33;7.32;;;6.70;;
63282;SDS011;49407;51.388;0.048;2022-09-09T12:23:55;7.85;;;7.15;;
63282;SDS011;49407;51.388;0.048;2022-09-09T12:32:06;7.22;;;6.72;;
63282;SDS011;49407;51.388;0.048;2022-09-09T12:34:39;7.72;;;7.22;;
63282;SDS011;49407;51.388;0.048;2022-09-09T12:37:33;8.02;;;7.25;;
63282;SDS011;49407;51.388;0.048;2022-09-09T12:40:20;7.20;;;6.60;;
63282;SDS011;49407;51.388;0.048;2022-09-09T12:42:49;6.22;;;5.82;;
63282;SDS011;49407;51.388;0.048;2022-09-09T12:45:20;5.38;;;4.97;;
63282;SDS011;49407;51.388;0.048;2022-09-09T12:47:58;5.53;;;5.13;;
63282;SDS011;49407;51.388;0.048;2022-09-09T12:50:31;5.20;;;4.75;;
63282;SDS011;49407;51.388;0.048;2022-09-09T12:53:43;4.88;;;4.57;;
63282;SDS011;49407;51.388;0.048;2022-09-09T12:55:54;5.43;;;5.10;;
63282;SDS011;49407;51.388;0.048;2022-09-09T12:58:25;5.13;;;4.60;;
63282;SDS011;49407;51.388;0.048;2022-09-09T13:00:55;5.55;;;5.10;;
63282;SDS011;49407;51.388;0.048;2022-09-09T13:03:23;5.07;;;4.75;;
63282;SDS011;49407;51.388;0.048;2022-09-09T13:05:51;5.03;;;4.63;;
63282;SDS011;49407;51.388;0.048;2022-09-09T13:08:20;6.13;;;5.65;;
63282;SDS011;49407;51.388;0.048;2022-09-09T13:10:51;6.38;;;5.38;;
63282;SDS011;49407;51.388;0.048;2022-09-09T13:13:30;5.70;;;5.18;;
63282;SDS011;49407;51.388;0.048;2022-09-09T13:16:02;5.68;;;5.28;;
63282;SDS011;49407;51.388;0.048;2022-09-09T13:18:33;4.90;;;4.57;;
63282;SDS011;49407;51.388;0.048;2022-09-09T13:21:01;4.57;;;4.28;;
63282;SDS011;49407;51.388;0.048;2022-09-09T13:23:30;5.18;;;4.35;;
63282;SDS011;49407;51.388;0.048;2022-09-09T13:26:00;5.35;;;4.93;;
63282;SDS011;49407;51.388;0.048;2022-09-09T13:28:29;4.93;;;4.63;;
63282;SDS011;49407;51.388;0.048;2022-09-09T13:31:00;6.03;;;5.47;;
63282;SDS011;49407;51.388;0.048;2022-09-09T13:33:30;5.20;;;4.82;;
63282;SDS011;49407;51.388;0.048;2022-09-09T13:36:01;6.40;;;6.03;;
63282;SDS011;49407;51.388;0.048;2022-09-09T13:38:37;6.75;;;6.43;;
63282;SDS011;49407;51.388;0.048;2022-09-09T13:41:07;6.63;;;6.22;;
63282;SDS011;49407;51.388;0.048;2022-09-09T13:43:43;7.03;;;6.63;;
63282;SDS011;49407;51.388;0.048;2022-09-09T13:46:47;6.50;;;5.90;;
63282;SDS011;49407;51.388;0.048;2022-09-09T13:54:10;6.80;;;6.27;;
63282;SDS011;49407;51.388;0.048;2022-09-09T13:56:38;7.45;;;6.85;;
63282;SDS011;49407;51.388;0.048;2022-09-09T13:59:10;7.25;;;6.78;;
63282;SDS011;49407;51.388;0.048;2022-09-09T14:01:39;7.20;;;6.70;;
63282;SDS011;49407;51.388;0.048;2022-09-09T14:04:07;6.90;;;6.50;;
63282;SDS011;49407;51.388;0.048;2022-09-09T14:06:35;7.70;;;7.22;;
63282;SDS011;49407;51.388;0.048;2022-09-09T14:09:13;7.28;;;6.78;;
63282;SDS011;49407;51.388;0.048;2022-09-09T14:11:42;7.20;;;6.68;;
63282;SDS011;49407;51.388;0.048;2022-09-09T14:14:09;8.23;;;7.50;;
63282;SDS011;49407;51.388;0.048;2022-09-09T14:16:37;7.35;;;6.85;;
63282;SDS011;49407;51.388;0.048;2022-09-09T14:19:04;6.97;;;6.47;;
63282;SDS011;49407;51.388;0.048;2022-09-09T14:21:31;6.40;;;6.05;;
63282;SDS011;49407;51.388;0.048;2022-09-09T14:23:58;6.18;;;5.78;;
63282;SDS011;49407;51.388;0.048;2022-09-09T14:26:25;5.95;;;5.55;;
63282;SDS011;49407;51.388;0.048;2022-09-09T14:28:52;6.80;;;6.15;;
63282;SDS011;49407;51.388;0.048;2022-09-09T14:31:21;5.15;;;4.75;;
63282;SDS011;49407;51.388;0.048;2022-09-09T14:33:49;6.30;;;5.82;;
63282;SDS011;49407;51.388;0.048;2022-09-09T14:36:17;5.15;;;4.95;;
63282;SDS011;49407;51.388;0.048;2022-09-09T14:38:48;5.68;;;5.30;;
63282;SDS011;49407;51.388;0.048;2022-09-09T14:41:15;6.78;;;6.28;;
63282;SDS011;49407;51.388;0.048;2022-09-09T14:43:44;6.45;;;5.95;;
63282;SDS011;49407;51.388;0.048;2022-09-09T14:46:13;6.47;;;5.95;;
63282;SDS011;49407;51.388;0.048;2022-09-09T14:51:49;6.07;;;5.78;;
63282;SDS011;49407;51.388;0.048;2022-09-09T14:54:16;6.30;;;5.85;;
63282;SDS011;49407;51.388;0.048;2022-09-09T14:56:42;6.25;;;5.85;;
63282;SDS011;49407;51.388;0.048;2022-09-09T15:02:19;6.00;;;5.50;;
63282;SDS011;49407;51.388;0.048;2022-09-09T15:04:46;6.97;;;6.57;;
63282;SDS011;49407;51.388;0.048;2022-09-09T15:07:13;5.68;;;5.38;;
63282;SDS011;49407;51.388;0.048;2022-09-09T15:09:41;5.55;;;5.35;;
63282;SDS011;49407;51.388;0.048;2022-09-09T15:12:08;6.32;;;5.82;;
63282;SDS011;49407;51.388;0.048;2022-09-09T15:14:35;5.63;;;5.25;;
63282;SDS011;49407;51.388;0.048;2022-09-09T15:17:02;5.35;;;5.05;;
63282;SDS011;49407;51.388;0.048;2022-09-09T15:19:31;5.95;;;5.60;;
63282;SDS011;49407;51.388;0.048;2022-09-09T15:21:58;5.25;;;4.95;;
63282;SDS011;49407;51.388;0.048;2022-09-09T15:24:26;5.82;;;5.45;;
63282;SDS011;49407;51.388;0.048;2022-09-09T15:26:53;5.93;;;5.60;;
63282;SDS011;49407;51.388;0.048;2022-09-09T15:29:21;5.45;;;5.15;;
63282;SDS011;49407;51.388;0.048;2022-09-09T15:31:48;5.63;;;5.32;;
63282;SDS011;49407;51.388;0.048;2022-09-09T15:34:14;6.63;;;6.22;;
63282;SDS011;49407;51.388;0.048;2022-09-09T15:36:42;5.75;;;5.45;;
63282;SDS011;49407;51.388;0.048;2022-09-09T15:39:15;5.80;;;5.43;;
63282;SDS011;49407;51.388;0.048;2022-09-09T15:41:47;6.60;;;6.20;;
63282;SDS011;49407;51.388;0.048;2022-09-09T15:44:14;6.47;;;5.95;;
63282;SDS011;49407;51.388;0.048;2022-09-09T15:46:43;4.93;;;4.70;;
63282;SDS011;49407;51.388;0.048;2022-09-09T15:49:21;6.28;;;5.88;;
63282;SDS011;49407;51.388;0.048;2022-09-09T15:51:55;6.85;;;6.45;;
63282;SDS011;49407;51.388;0.048;2022-09-09T15:54:24;6.13;;;5.63;;
63282;SDS011;49407;51.388;0.048;2022-09-09T15:56:53;5.53;;;5.13;;
63282;SDS011;49407;51.388;0.048;2022-09-09T15:59:23;6.05;;;5.65;;
63282;SDS011;49407;51.388;0.048;2022-09-09T16:01:51;6.15;;;5.85;;
63282;SDS011;49407;51.388;0.048;2022-09-09T16:04:18;5.03;;;4.82;;
63282;SDS011;49407;51.388;0.048;2022-09-09T16:06:56;5.82;;;5.43;;
63282;SDS011;49407;51.388;0.048;2022-09-09T16:12:33;6.75;;;6.40;;
63282;SDS011;49407;51.388;0.048;2022-09-09T16:15:00;8.98;;;6.20;;
63282;SDS011;49407;51.388;0.048;2022-09-09T16:17:27;6.60;;;6.20;;
63282;SDS011;49407;51.388;0.048;2022-09-09T16:19:54;6.28;;;5.97;;
63282;SDS011;49407;51.388;0.048;2022-09-09T16:22:23;5.88;;;5.57;;
63282;SDS011;49407;51.388;0.048;2022-09-09T16:24:51;7.43;;;6.18;;
63282;SDS011;49407;51.388;0.048;2022-09-09T16:27:17;6.30;;;5.90;;
63282;SDS011;49407;51.388;0.048;2022-09-09T16:29:45;5.93;;;5.63;;
63282;SDS011;49407;51.388;0.048;2022-09-09T16:32:12;6.32;;;6.03;;
63282;SDS011;49407;51.388;0.048;2022-09-09T16:34:39;6.65;;;6.28;;
63282;SDS011;49407;51.388;0.048;2022-09-09T16:37:06;6.50;;;6.10;;
63282;SDS011;49407;51.388;0.048;2022-09-09T16:39:34;6.80;;;6.30;;
63282;SDS011;49407;51.388;0.048;2022-09-09T16:42:01;6.88;;;6.47;;
63282;SDS011;49407;51.388;0.048;2022-09-09T16:44:31;6.32;;;5.82;;
63282;SDS011;49407;51.388;0.048;2022-09-09T16:46:57;7.78;;;7.38;;
63282;SDS011;49407;51.388;0.048;2022-09-09T16:49:26;7.00;;;6.45;;
63282;SDS011;49407;51.388;0.048;2022-09-09T16:51:56;6.13;;;5.63;;
63282;SDS011;49407;51.388;0.048;2022-09-09T16:54:24;6.75;;;6.35;;
63282;SDS011;49407;51.388;0.048;2022-09-09T16:56:53;6.78;;;6.28;;
63282;SDS011;49407;51.388;0.048;2022-09-09T16:59:21;6.72;;;6.13;;
63282;SDS011;49407;51.388;0.048;2022-09-09T17:01:49;6.63;;;6.13;;
63282;SDS011;49407;51.388;0.048;2022-09-09T17:04:25;7.38;;;6.97;;
63282;SDS011;49407;51.388;0.048;2022-09-09T17:06:54;7.45;;;6.85;;
63282;SDS011;49407;51.388;0.048;2022-09-09T17:12:15;7.78;;;7.07;;
63282;SDS011;49407;51.388;0.048;2022-09-09T17:14:42;7.50;;;7.00;;
63282;SDS011;49407;51.388;0.048;2022-09-09T17:17:09;7.80;;;7.28;;
63282;SDS011;49407;51.388;0.048;2022-09-09T17:19:58;7.35;;;6.75;;
63282;SDS011;49407;51.388;0.048;2022-09-09T17:22:25;7.78;;;7.28;;
63282;SDS011;49407;51.388;0.048;2022-09-09T17:24:52;8.35;;;7.70;;
63282;SDS011;49407;51.388;0.048;2022-09-09T17:27:19;7.43;;;6.85;;
63282;SDS011;49407;51.388;0.048;2022-09-09T17:29:47;7.28;;;6.68;;
63282;SDS011;49407;51.388;0.048;2022-09-09T17:32:14;13.32;;;8.30;;
63282;SDS011;49407;51.388;0.048;2022-09-09T17:34:41;7.90;;;7.40;;
63282;SDS011;49407;51.388;0.048;2022-09-09T17:37:08;7.97;;;7.38;;
63282;SDS011;49407;51.388;0.048;2022-09-09T17:39:38;8.57;;;7.95;;
63282;SDS011;49407;51.388;0.048;2022-09-09T17:42:06;8.75;;;8.05;;
63282;SDS011;49407;51.388;0.048;2022-09-09T17:44:35;8.30;;;7.60;;
63282;SDS011;49407;51.388;0.048;2022-09-09T17:47:02;8.02;;;7.43;;
63282;SDS011;49407;51.388;0.048;2022-09-09T17:49:31;7.70;;;7.10;;
63282;SDS011;49407;51.388;0.048;2022-09-09T17:51:58;8.85;;;8.13;;
63282;SDS011;49407;51.388;0.048;2022-09-09T17:54:25;9.50;;;8.52;;
63282;SDS011;49407;51.388;0.048;2022-09-09T17:56:52;9.38;;;8.57;;
63282;SDS011;49407;51.388;0.048;2022-09-09T17:59:21;9.25;;;8.57;;
63282;SDS011;49407;51.388;0.048;2022-09-09T18:01:48;9.48;;;8.68;;
63282;SDS011;49407;51.388;0.048;2022-09-09T18:04:16;9.30;;;8.55;;
63282;SDS011;49407;51.388;0.048;2022-09-09T18:06:45;8.82;;;8.23;;